createdAt,value
2016-03-08T00:00:23.059Z,1.8
2016-03-08T00:01:23.078Z,1.76
2016-03-08T00:02:23.065Z,1.76
2016-03-08T00:03:23.099Z,1.76
2016-03-08T00:04:23.103Z,1.77
2016-03-08T00:05:23.120Z,1.71
2016-03-08T00:06:23.123Z,1.73
2016-03-08T00:07:23.158Z,1.74
2016-03-08T00:08:23.144Z,1.73
2016-03-08T00:09:23.163Z,1.73
2016-03-08T00:10:23.165Z,1.73
2016-03-08T00:11:23.261Z,1.78
2016-03-08T00:12:23.202Z,1.71
2016-03-08T00:13:23.205Z,1.77
2016-03-08T00:14:23.222Z,1.8
2016-03-08T00:15:23.241Z,1.8
2016-03-08T00:16:23.227Z,1.8
2016-03-08T00:17:23.231Z,1.81
2016-03-08T00:18:23.265Z,1.87
2016-03-08T00:19:23.267Z,1.77
2016-03-08T00:20:23.285Z,1.88
2016-03-08T00:21:23.304Z,1.78
2016-03-08T00:22:23.307Z,1.81
2016-03-08T00:23:23.326Z,1.81
2016-03-08T00:24:23.328Z,1.81
2016-03-08T00:25:23.361Z,1.89
2016-03-08T00:26:23.380Z,1.88
2016-03-08T00:27:23.367Z,1.81
2016-03-08T00:28:23.369Z,1.88
2016-03-08T00:29:23.388Z,1.87
2016-03-08T00:30:23.390Z,1.91
2016-03-08T00:31:23.425Z,1.91
2016-03-08T00:32:23.443Z,1.88
2016-03-08T00:33:22.695Z,1.87
2016-03-08T00:34:23.433Z,1.78
2016-03-08T00:35:23.467Z,1.77
2016-03-08T00:36:23.516Z,1.78
2016-03-08T00:37:23.488Z,1.76
2016-03-08T00:38:23.491Z,1.74
2016-03-08T00:39:23.509Z,1.77
2016-03-08T00:40:23.527Z,1.85
2016-03-08T00:41:23.545Z,1.84
2016-03-08T00:42:23.547Z,1.73
2016-03-08T00:43:23.550Z,1.71
2016-03-08T00:44:23.553Z,1.74
2016-03-08T00:45:23.602Z,1.66
2016-03-08T00:46:23.590Z,1.63
2016-03-08T00:47:23.592Z,1.62
2016-03-08T00:48:23.611Z,1.59
2016-03-08T00:49:23.629Z,1.67
2016-03-08T00:50:23.632Z,1.53
2016-03-08T00:51:23.651Z,1.63
2016-03-08T00:52:23.668Z,1.52
2016-03-08T00:53:23.656Z,1.49
2016-03-08T00:54:23.690Z,1.5
2016-03-08T00:55:23.692Z,1.44
2016-03-08T00:56:23.695Z,1.4
2016-03-08T00:57:23.729Z,1.35
2016-03-08T00:58:23.731Z,1.4
2016-03-08T00:59:23.751Z,1.3
2016-03-08T01:00:23.784Z,1.31
2016-03-08T01:01:23.756Z,1.23
2016-03-08T01:02:23.773Z,1.2
2016-03-08T01:03:23.792Z,1.13
2016-03-08T01:04:23.779Z,1.12
2016-03-08T01:05:23.813Z,1.12
2016-03-08T01:06:23.816Z,1.13
2016-03-08T01:07:23.834Z,1.16
2016-03-08T01:08:23.852Z,0.99
2016-03-08T01:09:23.855Z,1.01
2016-03-08T01:10:23.866Z,0.99
2016-03-08T01:11:23.856Z,0.91
2016-03-08T01:12:23.863Z,0.96
2016-03-08T01:13:23.853Z,1.01
2016-03-08T01:14:23.859Z,0.87
2016-03-08T01:15:23.854Z,0.81
2016-03-08T01:16:23.900Z,0.84
2016-03-08T01:17:23.867Z,0.88
2016-03-08T01:18:23.881Z,0.8
2016-03-08T01:19:23.895Z,0.66
2016-03-08T01:20:23.926Z,0.73
2016-03-08T01:21:23.912Z,0.69
2016-03-08T01:22:23.913Z,0.68
2016-03-08T01:23:23.930Z,0.68
2016-03-08T01:24:23.930Z,0.69
2016-03-08T01:25:23.948Z,0.59
2016-03-08T01:26:23.965Z,0.59
2016-03-08T01:27:23.968Z,0.58
2016-03-08T01:28:23.985Z,0.59
2016-03-08T01:32:24.025Z,0.59
2016-03-08T01:33:24.058Z,0.46
2016-03-08T01:34:24.030Z,0.47
2016-03-08T01:35:24.048Z,0.46
2016-03-08T01:36:24.065Z,0.59
2016-03-08T01:37:24.069Z,0.46
2016-03-08T01:38:24.087Z,0.43
2016-03-08T01:39:24.089Z,0.56
2016-03-08T01:40:24.108Z,0.56
2016-03-08T01:41:24.110Z,0.47
2016-03-08T01:42:24.129Z,0.46
2016-03-08T01:43:24.131Z,0.47
2016-03-08T01:44:24.275Z,0.52
2016-03-08T01:45:24.153Z,0.46
2016-03-08T01:46:24.187Z,0.58
2016-03-08T01:47:24.173Z,0.52
2016-03-08T01:48:24.208Z,0.6
2016-03-08T01:49:24.210Z,0.6
2016-03-08T01:50:24.229Z,0.56
2016-03-08T01:51:24.231Z,0.6
2016-03-08T01:52:24.249Z,0.63
2016-03-08T01:53:24.252Z,0.56
2016-03-08T01:54:24.255Z,0.65
2016-03-08T01:55:24.272Z,0.52
2016-03-08T01:56:24.308Z,0.55
2016-03-08T01:57:24.294Z,0.44
2016-03-08T01:58:24.312Z,0.49
2016-03-08T01:59:24.316Z,0.46
2016-03-08T02:00:24.349Z,0.47
2016-03-08T02:01:24.352Z,0.49
2016-03-08T02:02:24.354Z,0.47
2016-03-08T02:03:24.388Z,0.55
2016-03-08T02:04:24.376Z,0.46
2016-03-08T02:05:24.379Z,0.49
2016-03-08T02:06:24.397Z,0.5
2016-03-08T02:07:24.415Z,0.58
2016-03-08T02:08:24.401Z,0.59
2016-03-08T02:09:24.421Z,0.47
2016-03-08T02:10:24.470Z,0.5
2016-03-08T02:11:24.440Z,0.49
2016-03-08T02:12:24.460Z,0.52
2016-03-08T02:13:24.478Z,0.47
2016-03-08T02:14:24.465Z,0.46
2016-03-08T02:15:24.484Z,0.43
2016-03-08T02:16:24.517Z,0.43
2016-03-08T02:17:24.551Z,0.36
2016-03-08T02:18:24.554Z,0.36
2016-03-08T02:19:24.541Z,0.36
2016-03-08T02:20:24.544Z,0.26
2016-03-08T02:21:24.577Z,0.29
2016-03-08T02:22:24.564Z,0.22
2016-03-08T02:23:24.598Z,0.25
2016-03-08T02:24:24.586Z,0.25
2016-03-08T02:25:24.588Z,0.25
2016-03-08T02:26:24.638Z,0.23
2016-03-08T02:27:24.609Z,0.18
2016-03-08T02:28:24.627Z,0.11
2016-03-08T02:29:24.661Z,0.01
2016-03-08T02:30:24.648Z,0.11
2016-03-08T02:31:24.667Z,0.03
2016-03-08T02:32:24.685Z,-0.02
2016-03-08T02:33:24.766Z,0.03
2016-03-08T02:34:24.707Z,0.01
2016-03-08T02:35:24.709Z,0
2016-03-08T02:36:24.712Z,0.03
2016-03-08T02:37:24.746Z,0
2016-03-08T02:38:24.749Z,0.01
2016-03-08T02:39:24.751Z,0.01
2016-03-08T02:40:24.753Z,-0.02
2016-03-08T02:41:24.772Z,-0.13
2016-03-08T02:42:24.774Z,-0.13
2016-03-08T02:43:24.793Z,-0.07
2016-03-08T02:44:24.827Z,-0.1
2016-03-08T02:45:24.814Z,0.01
2016-03-08T02:46:24.831Z,-0.17
2016-03-08T02:47:24.851Z,-0.14
2016-03-08T02:48:24.853Z,-0.08
2016-03-08T02:49:24.856Z,-0.14
2016-03-08T02:50:24.890Z,-0.1
2016-03-08T02:51:24.861Z,-0.14
2016-03-08T02:52:24.895Z,-0.13
2016-03-08T02:53:24.914Z,-0.08
2016-03-08T02:54:24.916Z,-0.15
2016-03-08T02:55:24.934Z,-0.17
2016-03-08T02:56:24.936Z,-0.1
2016-03-08T02:57:24.940Z,-0.1
2016-03-08T02:58:24.974Z,-0.07
2016-03-08T02:59:24.960Z,-0.06
2016-03-08T03:00:24.979Z,-0.02
2016-03-08T03:01:24.982Z,0.08
2016-03-08T03:02:25.000Z,0.05
2016-03-08T03:03:25.019Z,0.15
2016-03-08T03:04:25.021Z,0.26
2016-03-08T03:05:25.024Z,0.28
2016-03-08T03:06:25.043Z,0.28
2016-03-08T03:07:25.046Z,0.34
2016-03-08T03:08:25.063Z,0.39
2016-03-08T03:09:25.081Z,0.43
2016-03-08T03:10:25.085Z,0.4
2016-03-08T03:11:25.087Z,0.4
2016-03-08T03:12:25.090Z,0.39
2016-03-08T03:13:25.108Z,0.41
2016-03-08T03:14:25.142Z,0.37
2016-03-08T03:15:25.128Z,0.56
2016-03-08T03:16:25.148Z,0.39
2016-03-08T03:17:25.165Z,0.44
2016-03-08T03:18:25.153Z,0.41
2016-03-08T03:19:25.186Z,0.41
2016-03-08T03:20:25.189Z,0.39
2016-03-08T03:21:25.208Z,0.43
2016-03-08T03:22:25.211Z,0.41
2016-03-08T03:23:25.229Z,0.39
2016-03-08T03:24:25.247Z,0.37
2016-03-08T03:25:25.249Z,0.28
2016-03-08T03:26:25.253Z,0.23
2016-03-08T03:27:25.349Z,0.26
2016-03-08T03:28:25.289Z,0.29
2016-03-08T03:29:25.291Z,0.25
2016-03-08T03:30:25.341Z,0.18
2016-03-08T03:31:25.313Z,0.15
2016-03-08T03:32:25.331Z,0.15
2016-03-08T03:33:25.334Z,0.15
2016-03-08T03:34:25.336Z,0.07
2016-03-08T03:35:25.354Z,0.05
2016-03-08T03:36:25.405Z,0.08
2016-03-08T03:37:25.407Z,0.03
2016-03-08T03:38:25.424Z,-0.13
2016-03-08T03:39:25.412Z,-0.13
2016-03-08T03:40:25.430Z,-0.07
2016-03-08T03:41:25.417Z,-0.1
2016-03-08T03:42:25.421Z,-0.06
2016-03-08T03:43:25.438Z,-0.06
2016-03-08T03:44:25.441Z,-0.11
2016-03-08T03:45:25.459Z,-0.21
2016-03-08T03:46:25.478Z,-0.14
2016-03-08T03:47:25.481Z,-0.17
2016-03-08T03:48:25.483Z,-0.17
2016-03-08T03:49:25.517Z,-0.08
2016-03-08T03:50:25.520Z,-0.26
2016-03-08T03:51:25.506Z,-0.13
2016-03-08T03:52:25.542Z,-0.13
2016-03-08T03:53:25.575Z,-0.2
2016-03-08T03:54:25.562Z,-0.26
2016-03-08T03:55:25.550Z,-0.13
2016-03-08T03:56:25.552Z,-0.2
2016-03-08T03:57:25.586Z,-0.26
2016-03-08T03:58:25.603Z,-0.23
2016-03-08T03:59:25.591Z,-0.26
2016-03-08T04:00:25.609Z,-0.29
2016-03-08T04:01:25.627Z,-0.28
2016-03-08T04:02:25.631Z,-0.28
2016-03-08T04:03:25.649Z,-0.31
2016-03-08T04:04:25.651Z,-0.36
2016-03-08T04:05:25.654Z,-0.41
2016-03-08T04:06:25.682Z,-0.46
2016-03-08T04:07:25.685Z,-0.39
2016-03-08T04:08:25.703Z,-0.38
2016-03-08T04:09:25.565Z,-0.41
2016-03-08T04:10:25.724Z,-0.41
2016-03-08T04:11:25.789Z,-0.41
2016-03-08T04:12:25.745Z,-0.49
2016-03-08T04:13:25.764Z,-0.43
2016-03-08T04:14:25.766Z,-0.47
2016-03-08T04:15:25.785Z,-0.52
2016-03-08T04:16:25.772Z,-0.49
2016-03-08T04:17:25.806Z,-0.5
2016-03-08T04:18:25.792Z,-0.57
2016-03-08T04:19:25.826Z,-0.49
2016-03-08T04:20:25.828Z,-0.54
2016-03-08T04:21:25.847Z,-0.49
2016-03-08T04:22:25.849Z,-0.54
2016-03-08T04:23:25.852Z,-0.54
2016-03-08T04:24:25.871Z,-0.5
2016-03-08T04:25:25.858Z,-0.49
2016-03-08T04:26:25.877Z,-0.52
2016-03-08T04:27:25.894Z,-0.54
2016-03-08T04:28:25.913Z,-0.61
2016-03-08T04:29:25.916Z,-0.56
2016-03-08T04:30:25.918Z,-0.54
2016-03-08T04:31:25.937Z,-0.62
2016-03-08T04:32:25.939Z,-0.62
2016-03-08T04:33:25.958Z,-0.56
2016-03-08T04:34:25.976Z,-0.64
2016-03-08T04:35:25.979Z,-0.59
2016-03-08T04:36:25.982Z,-0.56
2016-03-08T04:37:25.999Z,-0.62
2016-03-08T04:38:26.034Z,-0.57
2016-03-08T04:39:26.021Z,-0.61
2016-03-08T04:40:25.273Z,-0.54
2016-03-08T04:41:26.057Z,-0.56
2016-03-08T04:42:26.059Z,-0.61
2016-03-08T04:43:26.048Z,-0.56
2016-03-08T04:44:26.081Z,-0.64
2016-03-08T04:45:26.084Z,-0.64
2016-03-08T04:46:26.118Z,-0.65
2016-03-08T04:47:26.120Z,-0.59
2016-03-08T04:48:26.108Z,-0.61
2016-03-08T04:49:26.126Z,-0.68
2016-03-08T04:50:26.145Z,-0.62
2016-03-08T04:51:26.147Z,-0.64
2016-03-08T04:52:26.149Z,-0.68
2016-03-08T04:53:26.167Z,-0.7
2016-03-08T04:54:26.170Z,-0.65
2016-03-08T04:55:26.172Z,-0.67
2016-03-08T04:56:26.208Z,-0.7
2016-03-08T04:57:26.210Z,-0.78
2016-03-08T04:58:26.227Z,-0.7
2016-03-08T04:59:26.230Z,-0.77
2016-03-08T05:00:26.233Z,-0.75
2016-03-08T05:01:26.236Z,-0.74
2016-03-08T05:02:26.270Z,-0.8
2016-03-08T05:03:26.273Z,-0.77
2016-03-08T05:04:26.276Z,-0.77
2016-03-08T05:05:26.278Z,-0.74
2016-03-08T05:06:26.297Z,-0.83
2016-03-08T05:07:26.299Z,-0.83
2016-03-08T05:08:26.333Z,-0.72
2016-03-08T05:09:26.335Z,-0.82
2016-03-08T05:10:26.338Z,-0.86
2016-03-08T05:11:26.357Z,-0.82
2016-03-08T05:12:26.359Z,-0.83
2016-03-08T05:13:26.362Z,-0.91
2016-03-08T05:14:26.381Z,-0.85
2016-03-08T05:15:26.398Z,-0.86
2016-03-08T05:16:26.418Z,-0.86
2016-03-08T05:17:26.404Z,-0.8
2016-03-08T05:18:26.439Z,-0.91
2016-03-08T05:19:26.269Z,-0.82
2016-03-08T05:20:26.444Z,-0.89
2016-03-08T05:21:26.446Z,-0.91
2016-03-08T05:22:26.480Z,-0.86
2016-03-08T05:23:26.482Z,-0.85
2016-03-08T05:24:26.470Z,-0.86
2016-03-08T05:25:26.488Z,-0.9
2016-03-08T05:26:26.506Z,-0.9
2016-03-08T05:27:26.509Z,-0.91
2016-03-08T05:28:26.511Z,-0.9
2016-03-08T05:29:26.514Z,-1.02
2016-03-08T05:30:26.548Z,-0.96
2016-03-08T05:31:26.552Z,-0.99
2016-03-08T05:32:26.569Z,-0.86
2016-03-08T05:33:26.556Z,-0.91
2016-03-08T05:34:26.600Z,-0.86
2016-03-08T05:35:27.929Z,-0.9
2016-03-08T05:36:26.414Z,-0.94
2016-03-08T05:37:26.820Z,-1.04
2016-03-08T05:38:27.938Z,-1.02
2016-03-08T05:39:26.643Z,-0.99
2016-03-08T05:40:26.645Z,-0.99
2016-03-08T05:41:26.648Z,-1.02
2016-03-08T05:42:26.650Z,-0.97
2016-03-08T05:43:26.670Z,-0.9
2016-03-08T05:44:26.656Z,-0.91
2016-03-08T05:45:26.690Z,-0.99
2016-03-08T05:46:26.678Z,-1.02
2016-03-08T05:47:26.695Z,-1.02
2016-03-08T05:48:26.714Z,-1.01
2016-03-08T05:49:26.724Z,-1.02
2016-03-08T05:50:26.727Z,-0.96
2016-03-08T05:51:26.744Z,-1.02
2016-03-08T05:52:26.732Z,-1.04
2016-03-08T05:53:26.750Z,-1.04
2016-03-08T05:54:26.768Z,-1.07
2016-03-08T05:55:26.630Z,-1.07
2016-03-08T05:56:26.774Z,-1.02
2016-03-08T05:57:26.792Z,-1.05
2016-03-08T05:58:26.795Z,-1.09
2016-03-08T05:59:26.813Z,-1.07
2016-03-08T06:00:26.846Z,-1.08
2016-03-08T06:01:26.834Z,-1.12
2016-03-08T06:02:26.851Z,-1.09
2016-03-08T06:03:26.855Z,-1.22
2016-03-08T06:04:26.857Z,-1.27
2016-03-08T06:05:26.860Z,-1.2
2016-03-08T06:06:26.883Z,-1.12
2016-03-08T06:07:26.887Z,-1.07
2016-03-08T06:08:26.920Z,-1.17
2016-03-08T06:09:26.907Z,-1.15
2016-03-08T06:10:26.925Z,-1.17
2016-03-08T06:11:26.928Z,-1.11
2016-03-08T06:12:26.916Z,-1.09
2016-03-08T06:13:26.964Z,-1.15
2016-03-08T06:14:26.952Z,-1.04
2016-03-08T06:15:26.955Z,-1.07
2016-03-08T06:16:27.051Z,-0.96
2016-03-08T06:17:26.992Z,-1.07
2016-03-08T06:18:27.010Z,-1.09
2016-03-08T06:19:26.997Z,-1.07
2016-03-08T06:20:27.030Z,-1.04
2016-03-08T06:21:27.018Z,-1.01
2016-03-08T06:22:27.036Z,-0.93
2016-03-08T06:23:27.038Z,-0.91
2016-03-08T06:24:27.057Z,-0.97
2016-03-08T06:25:27.060Z,-0.9
2016-03-08T06:26:27.079Z,-0.8
2016-03-08T06:27:27.081Z,-0.89
2016-03-08T06:28:27.099Z,-0.83
2016-03-08T06:29:27.101Z,-0.77
2016-03-08T06:30:27.104Z,-0.74
2016-03-08T06:31:27.137Z,-0.72
2016-03-08T06:32:27.141Z,-0.71
2016-03-08T06:33:27.159Z,-0.7
2016-03-08T06:34:27.146Z,-0.71
2016-03-08T06:35:27.164Z,-0.7
2016-03-08T06:36:27.183Z,-0.67
2016-03-08T06:37:27.186Z,-0.62
2016-03-08T06:38:27.203Z,-0.67
2016-03-08T06:39:27.239Z,-0.64
2016-03-08T06:40:27.225Z,-0.57
2016-03-08T06:41:27.227Z,-0.53
2016-03-08T06:42:27.246Z,-0.54
2016-03-08T06:43:27.233Z,-0.54
2016-03-08T06:44:27.267Z,-0.54
2016-03-08T06:45:27.285Z,-0.53
2016-03-08T06:46:27.272Z,-0.44
2016-03-08T06:47:27.306Z,-0.46
2016-03-08T06:48:27.293Z,-0.36
2016-03-08T06:49:27.312Z,-0.36
2016-03-08T06:50:27.314Z,-0.29
2016-03-08T06:51:27.317Z,-0.29
2016-03-08T06:52:27.335Z,-0.26
2016-03-08T06:53:27.354Z,-0.15
2016-03-08T06:54:27.341Z,-0.28
2016-03-08T06:55:27.359Z,-0.15
2016-03-08T06:56:27.377Z,-0.17
2016-03-08T06:57:27.396Z,-0.17
2016-03-08T06:58:27.399Z,-0.18
2016-03-08T06:59:27.401Z,-0.03
2016-03-08T07:00:27.420Z,-0.07
2016-03-08T07:01:27.438Z,-0.06
2016-03-08T07:02:27.440Z,0.01
2016-03-08T07:03:27.442Z,0.08
2016-03-08T07:04:27.462Z,0.1
2016-03-08T07:05:27.495Z,0.16
2016-03-08T07:06:27.481Z,0.21
2016-03-08T07:07:27.500Z,0.31
2016-03-08T07:08:27.362Z,0.21
2016-03-08T07:09:27.522Z,0.36
2016-03-08T07:10:27.525Z,0.36
2016-03-08T07:11:27.543Z,0.37
2016-03-08T07:12:27.545Z,0.4
2016-03-08T07:13:27.547Z,0.47
2016-03-08T07:14:27.566Z,0.49
2016-03-08T07:15:27.585Z,0.65
2016-03-08T07:16:27.588Z,0.7
2016-03-08T07:17:27.605Z,0.76
2016-03-08T07:18:27.608Z,0.8
2016-03-08T07:19:27.611Z,0.94
2016-03-08T07:20:27.644Z,0.88
2016-03-08T07:21:27.633Z,1.02
2016-03-08T07:22:27.650Z,0.98
2016-03-08T07:23:27.653Z,1.19
2016-03-08T07:24:27.687Z,1.12
2016-03-08T07:25:27.674Z,1.22
2016-03-08T07:26:27.708Z,1.26
2016-03-08T07:27:27.726Z,1.4
2016-03-08T07:28:27.713Z,1.45
2016-03-08T07:29:27.748Z,1.41
2016-03-08T07:30:27.765Z,1.53
2016-03-08T07:31:27.753Z,1.63
2016-03-08T07:32:27.787Z,1.62
2016-03-08T07:33:27.821Z,1.73
2016-03-08T07:34:27.807Z,1.8
2016-03-08T07:35:27.779Z,1.87
2016-03-08T07:36:27.829Z,1.81
2016-03-08T07:37:27.847Z,2.02
2016-03-08T07:38:27.817Z,2.1
2016-03-08T07:39:27.852Z,2.13
2016-03-08T07:40:27.089Z,2.08
2016-03-08T07:41:27.889Z,2.18
2016-03-08T07:42:27.876Z,2.35
2016-03-08T07:43:27.895Z,2.32
2016-03-08T07:44:27.897Z,2.38
2016-03-08T07:45:27.165Z,2.44
2016-03-08T07:46:27.919Z,2.47
2016-03-08T07:47:27.952Z,2.51
2016-03-08T07:48:27.939Z,2.57
2016-03-08T07:49:27.972Z,2.62
2016-03-08T07:50:27.975Z,2.71
2016-03-08T07:51:27.994Z,2.79
2016-03-08T07:52:27.996Z,2.79
2016-03-08T07:53:28.000Z,2.77
2016-03-08T07:54:28.018Z,2.85
2016-03-08T07:55:28.052Z,2.85
2016-03-08T07:56:28.038Z,2.97
2016-03-08T07:57:28.073Z,3.01
2016-03-08T07:58:27.388Z,3.04
2016-03-08T07:59:28.138Z,3.13
2016-03-08T08:00:28.079Z,3.23
2016-03-08T08:01:28.097Z,3.23
2016-03-08T08:02:28.131Z,3.29
2016-03-08T08:03:28.134Z,3.22
2016-03-08T08:04:28.137Z,3.41
2016-03-08T08:05:28.154Z,3.44
2016-03-08T08:06:28.173Z,3.41
2016-03-08T08:07:28.176Z,3.42
2016-03-08T08:08:28.054Z,3.47
2016-03-08T08:09:28.196Z,3.59
2016-03-08T08:10:28.231Z,3.59
2016-03-08T08:11:28.218Z,3.63
2016-03-08T08:12:28.236Z,3.7
2016-03-08T08:13:28.269Z,3.78
2016-03-08T08:14:28.273Z,3.78
2016-03-08T08:15:28.291Z,3.83
2016-03-08T08:16:28.294Z,3.88
2016-03-08T08:17:28.328Z,3.95
2016-03-08T08:18:28.299Z,4.02
2016-03-08T08:19:28.348Z,4.08
2016-03-08T08:20:28.350Z,4.13
2016-03-08T08:21:28.354Z,4.1
2016-03-08T08:22:28.372Z,4.17
2016-03-08T08:23:28.374Z,4.1
2016-03-08T08:24:28.393Z,4.14
2016-03-08T08:25:28.411Z,4.3
2016-03-08T08:26:28.430Z,4.3
2016-03-08T08:27:28.433Z,4.34
2016-03-08T08:28:28.435Z,4.34
2016-03-08T08:29:28.454Z,4.44
2016-03-08T08:30:28.472Z,4.4
2016-03-08T08:31:28.537Z,4.53
2016-03-08T08:32:28.477Z,4.58
2016-03-08T08:33:28.527Z,4.68
2016-03-08T08:34:28.545Z,4.8
2016-03-08T08:35:28.548Z,4.82
2016-03-08T08:36:28.535Z,4.96
2016-03-08T08:37:28.568Z,5.05
2016-03-08T08:38:28.571Z,5.1
2016-03-08T08:39:28.590Z,5.21
2016-03-08T08:40:28.593Z,5.29
2016-03-08T08:41:28.627Z,5.38
2016-03-08T08:42:28.629Z,5.38
2016-03-08T08:43:28.632Z,5.51
2016-03-08T08:44:28.681Z,5.48
2016-03-08T08:45:28.668Z,5.38
2016-03-08T08:46:28.717Z,5.41
2016-03-08T08:47:28.517Z,5.36
2016-03-08T08:48:28.723Z,5.28
2016-03-08T08:49:28.710Z,5.28
2016-03-08T08:50:28.728Z,5.35
2016-03-08T08:51:28.747Z,5.36
2016-03-08T08:52:28.781Z,5.38
2016-03-08T08:53:28.783Z,5.39
2016-03-08T08:54:28.880Z,5.43
2016-03-08T08:55:28.805Z,5.46
2016-03-08T08:56:28.808Z,5.53
2016-03-08T08:57:28.825Z,5.62
2016-03-08T08:58:28.844Z,5.66
2016-03-08T08:59:28.847Z,5.72
2016-03-08T09:00:28.865Z,5.72
2016-03-08T09:01:28.883Z,5.71
2016-03-08T09:02:28.886Z,5.71
2016-03-08T09:03:28.763Z,5.66
2016-03-08T09:04:28.923Z,5.79
2016-03-08T09:05:28.925Z,5.75
2016-03-08T09:06:28.944Z,5.82
2016-03-08T09:07:28.962Z,5.73
2016-03-08T09:08:28.980Z,5.59
2016-03-08T09:09:29.030Z,5.53
2016-03-08T09:10:29.001Z,5.59
2016-03-08T09:11:29.004Z,5.48
2016-03-08T09:12:29.054Z,5.28
2016-03-08T09:13:29.063Z,5.33
2016-03-08T09:14:29.066Z,5.46
2016-03-08T09:15:29.053Z,5.51
2016-03-08T09:16:29.087Z,5.48
2016-03-08T09:17:29.089Z,5.61
2016-03-08T09:18:29.123Z,5.61
2016-03-08T09:19:29.127Z,5.65
2016-03-08T09:20:29.129Z,5.64
2016-03-08T09:21:29.132Z,5.71
2016-03-08T09:22:29.150Z,5.89
2016-03-08T09:23:29.183Z,5.9
2016-03-08T09:24:29.171Z,5.91
2016-03-08T09:25:29.221Z,5.87
2016-03-08T09:26:29.239Z,5.93
2016-03-08T09:27:29.226Z,6.01
2016-03-08T09:28:29.229Z,6.07
2016-03-08T09:29:29.247Z,6.02
2016-03-08T09:30:29.265Z,5.94
2016-03-08T09:31:29.284Z,5.97
2016-03-08T09:32:29.317Z,5.98
2016-03-08T09:33:29.304Z,5.97
2016-03-08T09:34:29.322Z,5.94
2016-03-08T09:35:29.341Z,6.01
2016-03-08T09:36:29.359Z,5.99
2016-03-08T09:37:29.361Z,5.93
2016-03-08T09:38:29.364Z,5.86
2016-03-08T09:39:29.383Z,5.83
2016-03-08T09:40:29.401Z,5.89
2016-03-08T09:41:29.436Z,5.87
2016-03-08T09:42:29.438Z,5.9
2016-03-08T09:43:29.441Z,5.86
2016-03-08T09:44:29.458Z,5.91
2016-03-08T09:45:29.462Z,5.87
2016-03-08T09:46:29.495Z,5.83
2016-03-08T09:47:29.544Z,5.89
2016-03-08T09:48:29.501Z,5.66
2016-03-08T09:49:29.519Z,5.59
2016-03-08T09:50:29.538Z,5.65
2016-03-08T09:51:29.572Z,5.61
2016-03-08T09:52:29.574Z,5.59
2016-03-08T09:53:29.593Z,5.71
2016-03-08T09:54:29.610Z,5.69
2016-03-08T09:55:29.613Z,5.72
2016-03-08T09:56:29.616Z,5.68
2016-03-08T09:57:29.634Z,5.57
2016-03-08T09:58:29.637Z,5.56
2016-03-08T09:59:29.655Z,5.62
2016-03-08T10:00:29.674Z,5.62
2016-03-08T10:01:29.707Z,5.66
2016-03-08T10:02:29.695Z,5.66
2016-03-08T10:03:29.712Z,5.69
2016-03-08T10:04:29.732Z,5.87
2016-03-08T10:05:29.750Z,5.73
2016-03-08T10:06:29.768Z,5.72
2016-03-08T10:07:29.772Z,5.69
2016-03-08T10:08:29.805Z,5.59
2016-03-08T10:09:29.793Z,5.62
2016-03-08T10:10:29.811Z,5.56
2016-03-08T10:11:29.829Z,5.62
2016-03-08T10:12:29.832Z,5.53
2016-03-08T10:13:29.851Z,5.44
2016-03-08T10:14:29.853Z,5.53
2016-03-08T10:15:29.871Z,5.46
2016-03-08T10:16:29.883Z,5.62
2016-03-08T10:17:29.893Z,5.57
2016-03-08T10:18:29.900Z,5.57
2016-03-08T10:19:29.893Z,5.66
2016-03-08T10:20:29.902Z,5.66
2016-03-08T10:21:29.913Z,5.8
2016-03-08T10:22:29.913Z,5.82
2016-03-08T10:23:29.928Z,5.79
2016-03-08T10:24:29.926Z,5.89
2016-03-08T10:25:29.942Z,5.84
2016-03-08T10:26:29.943Z,5.93
2016-03-08T10:27:29.991Z,5.83
2016-03-08T10:28:29.993Z,5.82
2016-03-08T10:29:30.010Z,5.82
2016-03-08T10:30:30.011Z,5.83
2016-03-08T10:31:30.029Z,5.69
2016-03-08T10:32:30.046Z,5.79
2016-03-08T10:33:30.048Z,5.83
2016-03-08T10:34:30.066Z,5.82
2016-03-08T10:35:30.069Z,5.89
2016-03-08T10:36:30.071Z,5.98
2016-03-08T10:37:30.105Z,6.16
2016-03-08T10:38:30.123Z,6.2
2016-03-08T10:39:30.125Z,6.11
2016-03-08T10:40:30.143Z,6.16
2016-03-08T10:41:30.146Z,5.98
2016-03-08T10:42:30.195Z,5.89
2016-03-08T10:43:30.182Z,5.87
2016-03-08T10:44:30.216Z,5.9
2016-03-08T10:45:30.188Z,6.02
2016-03-08T10:46:30.237Z,6.04
2016-03-08T10:47:30.241Z,6.07
2016-03-08T10:48:30.258Z,6.12
2016-03-08T10:49:30.276Z,6.08
2016-03-08T10:50:30.280Z,6.11
2016-03-08T10:51:30.282Z,6.04
2016-03-08T10:52:30.331Z,6.12
2016-03-08T10:53:30.319Z,6.3
2016-03-08T10:54:30.321Z,6.36
2016-03-08T10:55:30.340Z,6.38
2016-03-08T10:56:30.358Z,6.38
2016-03-08T10:57:30.360Z,6.42
2016-03-08T10:58:30.394Z,6.49
2016-03-08T10:59:30.398Z,6.44
2016-03-08T11:00:30.415Z,6.69
2016-03-08T11:01:30.417Z,6.87
2016-03-08T11:02:30.453Z,6.93
2016-03-08T11:03:30.455Z,6.99
2016-03-08T11:04:30.473Z,7.06
2016-03-08T11:05:30.492Z,7.06
2016-03-08T11:06:30.494Z,7.1
2016-03-08T11:07:30.512Z,7.15
2016-03-08T11:08:30.515Z,7.29
2016-03-08T11:09:30.549Z,7.43
2016-03-08T11:10:30.567Z,7.54
2016-03-08T11:11:30.570Z,7.83
2016-03-08T11:12:30.588Z,7.87
2016-03-08T11:13:30.592Z,7.93
2016-03-08T11:14:30.594Z,7.85
2016-03-08T11:15:30.627Z,8.13
2016-03-08T11:16:30.647Z,8.15
2016-03-08T11:17:30.664Z,8.16
2016-03-08T11:18:30.666Z,8.06
2016-03-08T11:19:30.669Z,7.9
2016-03-08T11:20:30.704Z,7.76
2016-03-08T11:21:30.722Z,7.73
2016-03-08T11:22:30.724Z,7.61
2016-03-08T11:23:30.743Z,7.63
2016-03-08T11:24:30.792Z,7.69
2016-03-08T11:25:30.779Z,7.61
2016-03-08T11:26:30.829Z,7.58
2016-03-08T11:27:30.862Z,7.4
2016-03-08T11:28:30.804Z,7.31
2016-03-08T11:29:30.821Z,7.31
2016-03-08T11:30:30.887Z,7.06
2016-03-08T11:31:30.921Z,7.1
2016-03-08T11:32:30.923Z,7.06
2016-03-08T11:33:30.926Z,7.06
2016-03-08T11:34:30.757Z,7.11
2016-03-08T11:35:30.978Z,7.18
2016-03-08T11:36:30.981Z,7.17
2016-03-08T11:37:30.967Z,7.21
2016-03-08T11:38:30.956Z,7.17
2016-03-08T11:39:30.989Z,7.15
2016-03-08T11:40:30.975Z,7.29
2016-03-08T11:41:31.011Z,7.29
2016-03-08T11:42:30.997Z,7.33
2016-03-08T11:43:31.030Z,7.15
2016-03-08T11:44:31.050Z,7.03
2016-03-08T11:45:31.084Z,7.02
2016-03-08T11:46:31.071Z,6.96
2016-03-08T11:47:31.120Z,6.96
2016-03-08T11:48:31.092Z,6.99
2016-03-08T11:49:31.110Z,6.96
2016-03-08T11:50:31.127Z,6.97
2016-03-08T11:51:31.162Z,6.96
2016-03-08T11:52:31.149Z,6.88
2016-03-08T11:53:31.167Z,6.89
2016-03-08T11:54:31.185Z,6.97
2016-03-08T11:55:31.188Z,6.88
2016-03-08T11:56:31.207Z,7.02
2016-03-08T11:57:31.240Z,7.06
2016-03-08T11:58:31.243Z,7.13
2016-03-08T11:59:31.262Z,7.42
2016-03-08T12:00:31.264Z,7.54
2016-03-08T12:01:31.299Z,7.67
2016-03-08T12:02:31.285Z,7.63
2016-03-08T12:03:31.334Z,7.83
2016-03-08T12:04:31.323Z,7.91
2016-03-08T12:05:31.372Z,7.85
2016-03-08T12:06:31.360Z,7.82
2016-03-08T12:07:31.379Z,7.56
2016-03-08T12:08:31.382Z,7.25
2016-03-08T12:09:31.400Z,7.02
2016-03-08T12:10:31.433Z,6.74
2016-03-08T12:11:31.421Z,6.48
2016-03-08T12:12:31.439Z,6.42
2016-03-08T12:13:31.457Z,6.31
2016-03-08T12:14:31.476Z,6.12
2016-03-08T12:15:31.526Z,5.97
2016-03-08T12:16:31.482Z,5.8
2016-03-08T12:17:31.515Z,5.8
2016-03-08T12:18:31.518Z,5.71
2016-03-08T12:19:31.537Z,5.68
2016-03-08T12:20:31.554Z,5.71
2016-03-08T12:21:31.556Z,5.68
2016-03-08T12:22:31.576Z,5.69
2016-03-08T12:23:31.593Z,5.66
2016-03-08T12:24:31.612Z,5.66
2016-03-08T12:25:31.631Z,5.69
2016-03-08T12:26:31.633Z,5.8
2016-03-08T12:27:31.636Z,5.87
2016-03-08T12:28:31.685Z,5.9
2016-03-08T12:29:31.673Z,6.04
2016-03-08T12:30:31.675Z,6.12
2016-03-08T12:31:31.709Z,6.16
2016-03-08T12:32:31.712Z,6.2
2016-03-08T12:33:31.745Z,6.22
2016-03-08T12:34:31.748Z,6.27
2016-03-08T12:35:31.750Z,6.31
2016-03-08T12:36:31.800Z,6.35
2016-03-08T12:37:31.772Z,6.45
2016-03-08T12:38:31.649Z,6.44
2016-03-08T12:39:31.669Z,6.49
2016-03-08T12:40:31.827Z,6.7
2016-03-08T12:41:31.829Z,6.79
2016-03-08T12:42:31.848Z,6.79
2016-03-08T12:43:31.866Z,6.79
2016-03-08T12:44:31.885Z,6.96
2016-03-08T12:45:31.902Z,6.85
2016-03-08T12:46:31.922Z,6.97
2016-03-08T12:47:31.924Z,6.95
2016-03-08T12:48:31.926Z,7
2016-03-08T12:49:31.946Z,6.93
2016-03-08T12:50:31.963Z,7.06
2016-03-08T12:51:32.028Z,7.03
2016-03-08T12:52:32.000Z,7.06
2016-03-08T12:53:32.003Z,7.06
2016-03-08T12:54:32.037Z,7.1
2016-03-08T12:55:32.039Z,7.06
2016-03-08T12:56:32.089Z,7.03
2016-03-08T12:57:32.060Z,7.06
2016-03-08T12:58:32.078Z,7.24
2016-03-08T12:59:32.097Z,7.2
2016-03-08T13:00:32.115Z,7.32
2016-03-08T13:01:32.118Z,7.31
2016-03-08T13:02:32.136Z,7.25
2016-03-08T13:03:32.155Z,7.17
2016-03-08T13:04:32.142Z,7.21
2016-03-08T13:05:32.175Z,7.21
2016-03-08T13:06:32.082Z,7.29
2016-03-08T13:07:32.070Z,7.28
2016-03-08T13:08:32.214Z,7.29
2016-03-08T13:09:32.232Z,7.32
2016-03-08T13:10:32.234Z,7.31
2016-03-08T13:11:32.268Z,7.25
2016-03-08T13:12:32.271Z,7.5
2016-03-08T13:13:32.290Z,7.56
2016-03-08T13:14:32.292Z,7.67
2016-03-08T13:15:32.326Z,7.75
2016-03-08T13:16:32.173Z,7.7